createdAt,value
2022-12-04T00:01:46.544Z,14.57
2022-12-04T00:06:58.616Z,10.90
2022-12-04T00:12:02.999Z,11.35
2022-12-04T00:17:07.043Z,9.80
2022-12-04T00:22:12.432Z,14.05
2022-12-04T00:27:16.381Z,11.93
2022-12-04T00:32:20.488Z,11.18
2022-12-04T00:37:25.791Z,11.45
2022-12-04T00:42:29.774Z,11.02
2022-12-04T00:47:34.232Z,13.52
2022-12-04T00:52:39.612Z,24.85
2022-12-04T00:57:43.594Z,19.23
2022-12-04T01:02:48.548Z,17.13
2022-12-04T01:07:55.104Z,19.55
2022-12-04T01:12:59.137Z,16.63
2022-12-04T01:18:03.457Z,18.27
2022-12-04T01:23:08.815Z,25.85
2022-12-04T01:28:13.117Z,21.98
2022-12-04T01:33:17.258Z,16.55
2022-12-04T01:38:22.777Z,16.25
2022-12-04T01:43:28.232Z,19.25
2022-12-04T01:48:34.806Z,14.52
2022-12-04T01:53:43.113Z,16.17
2022-12-04T01:58:53.660Z,11.85
2022-12-04T02:03:58.836Z,11.13
2022-12-04T02:09:05.389Z,14.52
2022-12-04T02:14:23.240Z,16.75
2022-12-04T02:20:01.785Z,15.00
2022-12-04T02:25:14.029Z,16.10
2022-12-04T02:30:19.736Z,16.73
2022-12-04T02:35:28.218Z,15.30
2022-12-04T02:40:40.856Z,15.97
2022-12-04T02:45:50.204Z,16.70
2022-12-04T02:56:05.720Z,16.88
2022-12-04T03:01:23.947Z,12.60
2022-12-04T03:06:32.647Z,12.95
2022-12-04T03:11:39.691Z,15.17
2022-12-04T03:16:47.338Z,13.23
2022-12-04T03:21:55.419Z,13.20
2022-12-04T03:27:04.972Z,13.55
2022-12-04T03:32:14.628Z,13.20
2022-12-04T03:37:23.717Z,14.73
2022-12-04T03:42:33.462Z,12.25
2022-12-04T03:47:44.354Z,13.15
2022-12-04T03:52:54.288Z,12.75
2022-12-04T03:58:05.274Z,14.50
2022-12-04T04:03:15.813Z,12.77
2022-12-04T04:14:01.149Z,18.45
2022-12-04T04:19:26.119Z,12.68
2022-12-04T04:24:39.971Z,10.02
2022-12-04T04:29:52.289Z,13.02
2022-12-04T04:35:07.037Z,16.30
2022-12-04T04:40:22.593Z,18.13
2022-12-04T04:45:31.543Z,20.23
2022-12-04T04:50:38.841Z,26.90
2022-12-04T04:55:44.311Z,29.52
2022-12-04T05:01:00.162Z,17.80
2022-12-04T05:06:06.360Z,18.17
2022-12-04T05:11:14.118Z,18.23
2022-12-04T05:16:19.027Z,20.15
2022-12-04T05:21:24.733Z,29.58
2022-12-04T05:26:29.596Z,28.25
2022-12-04T05:31:33.953Z,26.30
2022-12-04T05:36:39.408Z,23.67
2022-12-04T05:41:43.388Z,19.20
2022-12-04T05:46:47.955Z,42.90
2022-12-04T05:51:54.007Z,33.67
2022-12-04T05:56:58.762Z,23.58
2022-12-04T06:02:02.866Z,11.25
2022-12-04T06:07:11.334Z,7.30
2022-12-04T06:12:15.770Z,15.98
2022-12-04T06:17:20.723Z,13.32
2022-12-04T06:22:26.167Z,7.53
2022-12-04T06:27:30.704Z,3.42
2022-12-04T06:32:35.194Z,10.18
2022-12-04T06:37:40.547Z,23.08
2022-12-04T06:42:44.768Z,9.73
2022-12-04T06:47:49.480Z,10.43
2022-12-04T06:52:54.907Z,9.73
2022-12-04T06:57:59.342Z,4.30
2022-12-04T07:03:05.845Z,10.85
2022-12-04T07:08:11.899Z,8.57
2022-12-04T07:13:16.063Z,8.25
2022-12-04T07:18:20.590Z,4.10
2022-12-04T07:23:25.995Z,8.98
2022-12-04T07:28:30.043Z,11.80
2022-12-04T07:33:34.825Z,7.63
2022-12-04T07:38:40.340Z,28.50
2022-12-04T07:43:44.977Z,24.88
2022-12-04T07:48:49.131Z,14.15
2022-12-04T07:54:02.014Z,9.73
2022-12-04T07:59:07.496Z,8.77
2022-12-04T08:04:13.009Z,15.93
2022-12-04T08:09:20.694Z,15.77
2022-12-04T08:14:25.702Z,14.47
2022-12-04T08:19:29.920Z,12.70
2022-12-04T08:24:35.863Z,15.13
2022-12-04T08:29:40.286Z,17.52
2022-12-04T08:34:44.363Z,12.00
2022-12-04T08:39:50.216Z,13.93
2022-12-04T08:44:54.453Z,12.20
2022-12-04T08:49:58.606Z,8.85
2022-12-04T08:55:03.999Z,12.60
2022-12-04T09:00:12.266Z,12.40
2022-12-04T09:05:16.301Z,9.23
2022-12-04T09:10:21.935Z,13.30
2022-12-04T09:15:26.447Z,5.65
2022-12-04T09:20:33.099Z,4.55
2022-12-04T09:25:39.124Z,4.65
2022-12-04T09:30:43.815Z,5.82
2022-12-04T09:35:48.673Z,3.83
2022-12-04T09:41:06.170Z,7.45
2022-12-04T09:46:17.024Z,14.75
2022-12-04T09:51:25.079Z,5.55
2022-12-04T09:56:32.259Z,8.95
2022-12-04T10:01:44.414Z,10.25
2022-12-04T10:06:55.645Z,11.40
2022-12-04T10:12:14.818Z,21.10
2022-12-04T10:17:41.393Z,18.50
2022-12-04T10:22:56.860Z,9.82
2022-12-04T10:28:13.557Z,13.73
2022-12-04T10:33:21.711Z,20.38
2022-12-04T10:38:35.553Z,14.73
2022-12-04T10:43:45.377Z,10.27
2022-12-04T10:48:52.211Z,13.73
2022-12-04T10:53:58.653Z,13.40
2022-12-04T10:59:06.568Z,12.82
2022-12-04T11:04:26.154Z,9.47
2022-12-04T11:09:31.269Z,7.72
2022-12-04T11:14:37.693Z,7.80
2022-12-04T11:19:41.661Z,13.02
2022-12-04T11:24:52.289Z,10.52
2022-12-04T11:29:58.606Z,10.32
2022-12-04T11:35:14.008Z,13.27
2022-12-04T11:40:20.074Z,12.15
2022-12-04T11:45:26.032Z,14.35
2022-12-04T11:50:44.205Z,14.93
2022-12-04T11:56:00.824Z,11.40
2022-12-04T12:01:21.328Z,11.50
2022-12-04T12:06:34.186Z,15.88
2022-12-04T12:11:47.672Z,11.98
2022-12-04T12:17:03.843Z,17.50
2022-12-04T12:22:18.061Z,14.82
2022-12-04T12:27:40.253Z,16.08
2022-12-04T12:32:59.322Z,14.77
2022-12-04T12:38:07.089Z,16.07
2022-12-04T12:43:16.926Z,16.10
2022-12-04T12:48:30.289Z,13.70
2022-12-04T12:53:41.176Z,15.25
2022-12-04T12:58:52.381Z,11.82
2022-12-04T13:04:06.855Z,15.32
2022-12-04T13:09:19.636Z,11.75
2022-12-04T13:14:36.146Z,14.10
2022-12-04T13:19:49.846Z,15.63
2022-12-04T13:25:28.036Z,10.90
2022-12-04T13:30:43.090Z,9.73
2022-12-04T13:36:17.096Z,10.98
2022-12-04T13:41:24.074Z,21.10
2022-12-04T13:46:34.398Z,23.92
2022-12-04T13:51:41.853Z,7.85
2022-12-04T13:56:58.200Z,14.02
2022-12-04T14:02:14.703Z,14.90
2022-12-04T14:07:33.137Z,11.10
2022-12-04T14:12:44.187Z,16.63
2022-12-04T14:18:03.301Z,19.85
2022-12-04T14:23:27.480Z,16.83
2022-12-04T14:28:57.622Z,14.00
2022-12-04T14:34:21.869Z,16.17
2022-12-04T14:39:36.049Z,12.30
2022-12-04T14:44:42.517Z,19.08
2022-12-04T14:50:04.148Z,17.10
2022-12-04T14:55:29.056Z,9.90
2022-12-04T15:00:41.908Z,13.60
2022-12-04T15:06:07.592Z,11.02
2022-12-04T15:11:38.729Z,16.63
2022-12-04T15:16:45.644Z,17.33
2022-12-04T15:21:50.532Z,14.80
2022-12-04T15:27:02.771Z,16.92
2022-12-04T15:32:13.730Z,19.30
2022-12-04T15:37:24.031Z,12.38
2022-12-04T15:42:31.540Z,15.57
2022-12-04T15:47:54.949Z,7.90
2022-12-04T15:53:11.213Z,14.13
2022-12-04T15:58:30.385Z,9.75
2022-12-04T16:03:48.352Z,14.05
2022-12-04T16:09:00.695Z,13.88
2022-12-04T16:19:31.740Z,20.88
2022-12-04T16:24:35.833Z,23.60
2022-12-04T16:29:40.112Z,22.10
2022-12-04T16:34:45.636Z,26.15
2022-12-04T16:39:50.300Z,18.77
2022-12-04T16:44:55.082Z,26.10
2022-12-04T16:50:02.550Z,25.42
2022-12-04T16:55:17.520Z,17.23
2022-12-04T17:00:22.692Z,17.40
2022-12-04T17:05:30.579Z,14.25
2022-12-04T17:10:35.321Z,14.85
2022-12-04T17:15:39.752Z,18.67
2022-12-04T17:20:45.678Z,14.85
2022-12-04T17:25:50.067Z,14.10
2022-12-04T17:30:54.110Z,12.70
2022-12-04T17:36:00.450Z,11.27
2022-12-04T17:41:06.077Z,10.85
2022-12-04T17:46:11.354Z,19.27
2022-12-04T17:51:20.415Z,11.95
2022-12-04T17:56:25.981Z,13.05
2022-12-04T18:01:31.035Z,15.20
2022-12-04T18:06:39.469Z,16.15
2022-12-04T18:11:47.813Z,18.10
2022-12-04T18:16:54.832Z,14.13
2022-12-04T18:22:00.502Z,15.90
2022-12-04T18:27:05.402Z,18.20
2022-12-04T18:32:10.152Z,13.55
2022-12-04T18:37:16.975Z,11.32
2022-12-04T18:42:21.026Z,16.38
2022-12-04T18:47:26.914Z,15.55
2022-12-04T18:52:36.573Z,15.10
2022-12-04T18:57:40.561Z,15.77
2022-12-04T19:02:46.371Z,15.20
2022-12-04T19:07:54.257Z,17.17
2022-12-04T19:12:58.706Z,21.23
2022-12-04T19:18:04.113Z,16.52
2022-12-04T19:23:09.841Z,15.77
2022-12-04T19:28:14.124Z,15.52
2022-12-04T19:33:18.186Z,14.55
2022-12-04T19:38:23.799Z,11.43
2022-12-04T19:43:27.759Z,10.57
2022-12-04T19:48:32.277Z,17.50
2022-12-04T19:53:41.343Z,14.80
2022-12-04T19:58:45.813Z,27.23
2022-12-04T20:03:51.052Z,26.38
2022-12-04T20:08:58.099Z,39.40
2022-12-04T20:14:05.921Z,31.67
2022-12-04T20:19:14.552Z,31.58
2022-12-04T20:24:20.127Z,35.67
2022-12-04T20:29:24.589Z,19.30
2022-12-04T20:34:28.619Z,18.45
2022-12-04T20:39:35.129Z,16.85
2022-12-04T20:44:40.226Z,18.13
2022-12-04T20:49:44.182Z,12.27
2022-12-04T20:54:49.653Z,21.10
2022-12-04T20:59:55.738Z,19.08
2022-12-04T21:05:00.680Z,24.05
2022-12-04T21:10:09.733Z,25.17
2022-12-04T21:20:35.137Z,19.92
2022-12-04T21:25:41.969Z,25.63
2022-12-04T21:30:46.934Z,18.88
2022-12-04T21:35:50.984Z,20.10
2022-12-04T21:40:56.465Z,27.55
2022-12-04T21:46:07.485Z,23.55
2022-12-04T21:51:39.793Z,18.35
2022-12-04T21:56:39.527Z,19.58
2022-12-04T22:01:47.830Z,16.95
2022-12-04T22:06:52.718Z,23.67
2022-12-04T22:11:58.841Z,20.17
2022-12-04T22:17:05.448Z,23.27
2022-12-04T22:22:11.794Z,33.40
2022-12-04T22:27:17.967Z,37.38
2022-12-04T22:32:22.057Z,29.98
2022-12-04T22:37:28.595Z,20.27
2022-12-04T22:42:34.229Z,17.45
2022-12-04T22:47:39.910Z,26.35
2022-12-04T22:52:43.964Z,17.08
2022-12-04T22:57:49.515Z,13.68
2022-12-04T23:02:53.627Z,15.75
2022-12-04T23:07:57.929Z,21.05
2022-12-04T23:13:04.392Z,17.85
2022-12-04T23:18:09.244Z,14.35
2022-12-04T23:23:14.684Z,31.33
2022-12-04T23:28:20.355Z,20.35
2022-12-04T23:33:24.662Z,13.05
2022-12-04T23:38:29.942Z,17.33
2022-12-04T23:43:36.560Z,22.17
2022-12-04T23:48:41.699Z,21.60
2022-12-04T23:53:46.295Z,18.73
2022-12-04T23:58:53.909Z,21.83
